sensor_id;sensor_type;location;lat;lon;timestamp;pressure;altitude;pressure_sealevel;temperature;humidity
65131;BME280;51709;54.912;8.316;2023-03-13T00:02:53;99736.44;;;6.06;83.36
65131;BME280;51709;54.912;8.316;2023-03-13T00:08:13;99729.72;;;6.01;83.66
65131;BME280;51709;54.912;8.316;2023-03-13T00:13:34;99720.38;;;6.02;83.65
65131;BME280;51709;54.912;8.316;2023-03-13T00:18:56;99715.28;;;6.02;83.82
65131;BME280;51709;54.912;8.316;2023-03-13T00:24:17;99705.72;;;6.13;83.25
65131;BME280;51709;54.912;8.316;2023-03-13T00:29:37;99691.34;;;6.09;83.66
65131;BME280;51709;54.912;8.316;2023-03-13T00:34:58;99670.91;;;6.12;83.84
65131;BME280;51709;54.912;8.316;2023-03-13T00:40:19;99661.56;;;6.13;84.22
65131;BME280;51709;54.912;8.316;2023-03-13T00:45:40;99654.66;;;6.18;84.21
65131;BME280;51709;54.912;8.316;2023-03-13T00:51:01;99638.50;;;6.19;84.34
65131;BME280;51709;54.912;8.316;2023-03-13T00:56:22;99628.34;;;6.17;84.32
65131;BME280;51709;54.912;8.316;2023-03-13T01:01:43;99615.56;;;6.19;84.69
65131;BME280;51709;54.912;8.316;2023-03-13T01:07:03;99614.66;;;6.22;84.64
65131;BME280;51709;54.912;8.316;2023-03-13T01:12:24;99608.66;;;6.24;85.00
65131;BME280;51709;54.912;8.316;2023-03-13T01:17:45;99584.94;;;6.22;85.08
65131;BME280;51709;54.912;8.316;2023-03-13T01:23:06;99576.44;;;6.23;84.78
65131;BME280;51709;54.912;8.316;2023-03-13T01:28:26;99569.72;;;6.19;85.19
65131;BME280;51709;54.912;8.316;2023-03-13T01:33:48;99557.84;;;6.18;85.31
65131;BME280;51709;54.912;8.316;2023-03-13T01:39:09;99550.97;;;6.23;85.28
65131;BME280;51709;54.912;8.316;2023-03-13T01:44:51;99530.72;;;6.17;85.54
65131;BME280;51709;54.912;8.316;2023-03-13T01:50:13;99527.91;;;6.28;85.04
65131;BME280;51709;54.912;8.316;2023-03-13T01:56:04;99508.41;;;6.27;85.33
65131;BME280;51709;54.912;8.316;2023-03-13T02:01:27;99501.59;;;6.27;85.15
65131;BME280;51709;54.912;8.316;2023-03-13T02:06:53;99476.38;;;6.16;85.87
65131;BME280;51709;54.912;8.316;2023-03-13T02:12:32;99457.72;;;6.16;86.16
65131;BME280;51709;54.912;8.316;2023-03-13T02:17:55;99447.53;;;6.16;85.81
65131;BME280;51709;54.912;8.316;2023-03-13T02:23:52;99423.91;;;6.11;86.34
65131;BME280;51709;54.912;8.316;2023-03-13T02:29:16;99408.38;;;6.19;85.91
65131;BME280;51709;54.912;8.316;2023-03-13T02:34:38;99391.34;;;6.21;85.69
65131;BME280;51709;54.912;8.316;2023-03-13T02:40:06;99386.50;;;6.11;86.52
65131;BME280;51709;54.912;8.316;2023-03-13T02:45:29;99381.47;;;6.08;86.89
65131;BME280;51709;54.912;8.316;2023-03-13T02:50:50;99369.69;;;6.06;86.97
65131;BME280;51709;54.912;8.316;2023-03-13T02:56:12;99341.53;;;6.10;87.00
65131;BME280;51709;54.912;8.316;2023-03-13T03:01:35;99329.69;;;6.09;87.21
65131;BME280;51709;54.912;8.316;2023-03-13T03:06:56;99313.53;;;6.10;86.99
65131;BME280;51709;54.912;8.316;2023-03-13T03:12:17;99305.22;;;6.04;87.75
65131;BME280;51709;54.912;8.316;2023-03-13T03:17:38;99283.88;;;6.08;87.49
65131;BME280;51709;54.912;8.316;2023-03-13T03:22:59;99268.53;;;6.09;87.50
65131;BME280;51709;54.912;8.316;2023-03-13T03:28:20;99249.06;;;6.08;87.72
65131;BME280;51709;54.912;8.316;2023-03-13T03:33:42;99238.72;;;6.13;87.59
65131;BME280;51709;54.912;8.316;2023-03-13T03:39:05;99215.72;;;6.16;87.60
65131;BME280;51709;54.912;8.316;2023-03-13T03:44:26;99199.69;;;6.12;88.16
65131;BME280;51709;54.912;8.316;2023-03-13T03:49:50;99183.41;;;6.18;88.25
65131;BME280;51709;54.912;8.316;2023-03-13T03:55:10;99184.16;;;6.22;88.29
65131;BME280;51709;54.912;8.316;2023-03-13T04:00:31;99161.31;;;6.19;88.80
65131;BME280;51709;54.912;8.316;2023-03-13T04:05:52;99133.84;;;6.28;88.88
65131;BME280;51709;54.912;8.316;2023-03-13T04:11:15;99115.34;;;6.23;89.43
65131;BME280;51709;54.912;8.316;2023-03-13T04:16:41;99126.84;;;6.35;89.42
65131;BME280;51709;54.912;8.316;2023-03-13T04:22:02;99103.03;;;6.36;89.67
65131;BME280;51709;54.912;8.316;2023-03-13T04:27:24;99066.25;;;6.45;89.81
65131;BME280;51709;54.912;8.316;2023-03-13T04:32:45;99046.66;;;6.45;89.37
65131;BME280;51709;54.912;8.316;2023-03-13T04:38:19;99041.47;;;6.23;89.34
65131;BME280;51709;54.912;8.316;2023-03-13T04:44:00;99035.66;;;6.18;89.33
65131;BME280;51709;54.912;8.316;2023-03-13T04:49:24;99009.34;;;6.17;89.78
65131;BME280;51709;54.912;8.316;2023-03-13T04:55:04;98985.28;;;6.26;89.60
65131;BME280;51709;54.912;8.316;2023-03-13T05:00:43;98971.69;;;6.27;89.50
65131;BME280;51709;54.912;8.316;2023-03-13T05:06:26;98956.44;;;5.99;90.21
65131;BME280;51709;54.912;8.316;2023-03-13T05:11:56;98936.84;;;6.03;89.96
65131;BME280;51709;54.912;8.316;2023-03-13T05:17:32;98924.97;;;6.03;90.09
65131;BME280;51709;54.912;8.316;2023-03-13T05:23:10;98905.47;;;6.02;90.25
65131;BME280;51709;54.912;8.316;2023-03-13T05:28:53;98892.13;;;5.94;90.40
65131;BME280;51709;54.912;8.316;2023-03-13T05:34:24;98873.41;;;5.95;90.56
65131;BME280;51709;54.912;8.316;2023-03-13T05:40:04;98839.75;;;5.86;90.71
65131;BME280;51709;54.912;8.316;2023-03-13T05:45:35;98836.38;;;5.86;91.23
65131;BME280;51709;54.912;8.316;2023-03-13T05:51:04;98814.91;;;5.93;90.93
65131;BME280;51709;54.912;8.316;2023-03-13T05:56:48;98797.16;;;5.92;91.21
65131;BME280;51709;54.912;8.316;2023-03-13T06:02:28;98787.06;;;5.89;91.78
65131;BME280;51709;54.912;8.316;2023-03-13T06:07:50;98774.28;;;5.90;91.78
65131;BME280;51709;54.912;8.316;2023-03-13T06:13:11;98775.91;;;5.93;92.17
65131;BME280;51709;54.912;8.316;2023-03-13T06:18:41;98749.91;;;6.08;92.46
65131;BME280;51709;54.912;8.316;2023-03-13T06:24:02;98740.53;;;6.32;92.86
65131;BME280;51709;54.912;8.316;2023-03-13T06:29:23;98731.38;;;6.51;92.61
65131;BME280;51709;54.912;8.316;2023-03-13T06:34:43;98695.81;;;6.47;92.63
65131;BME280;51709;54.912;8.316;2023-03-13T06:40:04;98703.28;;;6.52;92.49
65131;BME280;51709;54.912;8.316;2023-03-13T06:45:26;98680.25;;;6.54;92.73
65131;BME280;51709;54.912;8.316;2023-03-13T06:50:47;98677.91;;;6.49;92.54
65131;BME280;51709;54.912;8.316;2023-03-13T06:56:08;98652.41;;;6.49;92.69
65131;BME280;51709;54.912;8.316;2023-03-13T07:01:29;98651.16;;;6.59;93.05
65131;BME280;51709;54.912;8.316;2023-03-13T07:06:50;98646.66;;;6.66;92.95
65131;BME280;51709;54.912;8.316;2023-03-13T07:19:15;98631.69;;;6.79;93.19
65131;BME280;51709;54.912;8.316;2023-03-13T07:24:37;98619.53;;;6.86;92.98
65131;BME280;51709;54.912;8.316;2023-03-13T07:29:57;98617.34;;;6.97;92.94
65131;BME280;51709;54.912;8.316;2023-03-13T07:35:18;98613.72;;;7.03;92.63
65131;BME280;51709;54.912;8.316;2023-03-13T07:40:55;98609.38;;;7.05;92.33
65131;BME280;51709;54.912;8.316;2023-03-13T07:46:17;98605.38;;;7.18;92.10
65131;BME280;51709;54.912;8.316;2023-03-13T07:51:39;98604.25;;;7.25;91.54
65131;BME280;51709;54.912;8.316;2023-03-13T07:57:03;98601.81;;;7.22;91.72
65131;BME280;51709;54.912;8.316;2023-03-13T08:02:25;98589.53;;;7.31;91.61
65131;BME280;51709;54.912;8.316;2023-03-13T08:07:45;98577.44;;;7.36;91.55
65131;BME280;51709;54.912;8.316;2023-03-13T08:13:06;98586.66;;;7.38;91.64
65131;BME280;51709;54.912;8.316;2023-03-13T08:18:26;98573.91;;;7.38;91.51
65131;BME280;51709;54.912;8.316;2023-03-13T08:23:47;98568.34;;;7.49;91.42
65131;BME280;51709;54.912;8.316;2023-03-13T08:29:12;98560.47;;;7.54;91.51
65131;BME280;51709;54.912;8.316;2023-03-13T08:34:33;98581.00;;;7.70;90.92
65131;BME280;51709;54.912;8.316;2023-03-13T08:39:56;98551.94;;;7.72;90.91
65131;BME280;51709;54.912;8.316;2023-03-13T08:45:16;98546.44;;;7.82;90.70
65131;BME280;51709;54.912;8.316;2023-03-13T08:50:37;98547.13;;;7.85;90.89
65131;BME280;51709;54.912;8.316;2023-03-13T08:55:58;98550.22;;;7.92;90.60
65131;BME280;51709;54.912;8.316;2023-03-13T09:01:20;98540.00;;;8.10;90.39
65131;BME280;51709;54.912;8.316;2023-03-13T09:06:41;98558.66;;;8.12;90.48
65131;BME280;51709;54.912;8.316;2023-03-13T09:12:02;98548.97;;;8.18;90.46
65131;BME280;51709;54.912;8.316;2023-03-13T09:17:23;98547.66;;;8.10;90.64
65131;BME280;51709;54.912;8.316;2023-03-13T09:22:44;98543.94;;;8.17;90.61
65131;BME280;51709;54.912;8.316;2023-03-13T09:28:04;98542.88;;;8.21;90.50
65131;BME280;51709;54.912;8.316;2023-03-13T09:33:25;98567.66;;;8.19;90.74
65131;BME280;51709;54.912;8.316;2023-03-13T09:38:45;98559.72;;;8.25;90.66
65131;BME280;51709;54.912;8.316;2023-03-13T09:44:11;98570.47;;;8.32;90.51
65131;BME280;51709;54.912;8.316;2023-03-13T09:49:37;98562.00;;;8.49;90.19
65131;BME280;51709;54.912;8.316;2023-03-13T09:55:11;98549.53;;;8.60;90.30
65131;BME280;51709;54.912;8.316;2023-03-13T10:00:37;98558.97;;;8.76;90.11
65131;BME280;51709;54.912;8.316;2023-03-13T10:06:01;98564.16;;;8.92;89.75
65131;BME280;51709;54.912;8.316;2023-03-13T10:11:30;98567.94;;;9.01;89.75
65131;BME280;51709;54.912;8.316;2023-03-13T10:22:46;98542.19;;;10.46;87.25
65131;BME280;51709;54.912;8.316;2023-03-13T10:28:14;98544.53;;;10.94;86.08
65131;BME280;51709;54.912;8.316;2023-03-13T10:33:36;98553.78;;;11.40;85.42
65131;BME280;51709;54.912;8.316;2023-03-13T10:38:57;98525.81;;;11.36;85.15
65131;BME280;51709;54.912;8.316;2023-03-13T10:44:20;98520.78;;;11.89;84.13
65131;BME280;51709;54.912;8.316;2023-03-13T10:49:50;98507.56;;;12.61;82.46
65131;BME280;51709;54.912;8.316;2023-03-13T10:55:16;98523.94;;;16.76;70.47
65131;BME280;51709;54.912;8.316;2023-03-13T11:00:38;98522.72;;;22.22;57.24
65131;BME280;51709;54.912;8.316;2023-03-13T11:06:02;98515.47;;;23.92;54.18
65131;BME280;51709;54.912;8.316;2023-03-13T11:11:23;98527.97;;;19.62;66.17
65131;BME280;51709;54.912;8.316;2023-03-13T11:16:57;98519.63;;;19.58;66.83
65131;BME280;51709;54.912;8.316;2023-03-13T11:28:14;98512.00;;;16.85;72.55
65131;BME280;51709;54.912;8.316;2023-03-13T11:33:46;98510.44;;;14.53;78.49
65131;BME280;51709;54.912;8.316;2023-03-13T11:51:04;98502.19;;;26.08;48.47
65131;BME280;51709;54.912;8.316;2023-03-13T11:56:34;98522.25;;;28.24;45.05
65131;BME280;51709;54.912;8.316;2023-03-13T12:01:59;98523.66;;;28.33;44.71
65131;BME280;51709;54.912;8.316;2023-03-13T12:07:29;98493.84;;;28.26;44.61
65131;BME280;51709;54.912;8.316;2023-03-13T12:12:55;98489.16;;;27.47;44.29
65131;BME280;51709;54.912;8.316;2023-03-13T12:18:29;98470.09;;;28.26;42.37
65131;BME280;51709;54.912;8.316;2023-03-13T12:24:00;98445.50;;;29.04;39.56
65131;BME280;51709;54.912;8.316;2023-03-13T12:29:39;98461.84;;;29.52;38.08
65131;BME280;51709;54.912;8.316;2023-03-13T12:35:13;98476.13;;;27.26;40.74
65131;BME280;51709;54.912;8.316;2023-03-13T12:40:40;98451.84;;;24.36;45.71
65131;BME280;51709;54.912;8.316;2023-03-13T13:03:33;98465.44;;;20.69;47.08
65131;BME280;51709;54.912;8.316;2023-03-13T13:09:07;98418.03;;;17.33;52.13
65131;BME280;51709;54.912;8.316;2023-03-13T13:20:32;98411.72;;;12.71;59.77
65131;BME280;51709;54.912;8.316;2023-03-13T13:25:55;98389.00;;;12.00;60.50
65131;BME280;51709;54.912;8.316;2023-03-13T13:48:20;98367.63;;;10.21;64.30
65131;BME280;51709;54.912;8.316;2023-03-13T13:53:44;98352.25;;;9.92;64.94
65131;BME280;51709;54.912;8.316;2023-03-13T14:05:01;98332.81;;;9.12;67.65
65131;BME280;51709;54.912;8.316;2023-03-13T14:10:37;98358.44;;;8.80;69.12
65131;BME280;51709;54.912;8.316;2023-03-13T14:16:18;98340.38;;;8.67;70.20
65131;BME280;51709;54.912;8.316;2023-03-13T14:21:43;98339.88;;;8.60;71.02
65131;BME280;51709;54.912;8.316;2023-03-13T14:27:15;98332.09;;;8.62;71.46
65131;BME280;51709;54.912;8.316;2023-03-13T14:32:37;98353.22;;;8.66;71.87
65131;BME280;51709;54.912;8.316;2023-03-13T14:38:01;98307.59;;;8.90;71.18
65131;BME280;51709;54.912;8.316;2023-03-13T14:43:43;98332.69;;;9.30;70.29
65131;BME280;51709;54.912;8.316;2023-03-13T14:49:14;98328.88;;;9.82;68.91
65131;BME280;51709;54.912;8.316;2023-03-13T14:54:49;98326.31;;;9.82;69.05
65131;BME280;51709;54.912;8.316;2023-03-13T15:00:37;98324.94;;;9.76;69.49
65131;BME280;51709;54.912;8.316;2023-03-13T15:06:05;98313.56;;;10.67;67.30
65131;BME280;51709;54.912;8.316;2023-03-13T15:11:31;98304.13;;;11.22;65.83
65131;BME280;51709;54.912;8.316;2023-03-13T15:16:53;98297.69;;;11.43;65.33
65131;BME280;51709;54.912;8.316;2023-03-13T15:22:15;98308.00;;;10.88;66.77
65131;BME280;51709;54.912;8.316;2023-03-13T15:34:13;98304.91;;;10.26;68.87
65131;BME280;51709;54.912;8.316;2023-03-13T15:39:33;98293.28;;;10.35;68.42
65131;BME280;51709;54.912;8.316;2023-03-13T15:44:54;98311.06;;;10.24;68.53
65131;BME280;51709;54.912;8.316;2023-03-13T15:50:17;98302.81;;;9.90;69.52
65131;BME280;51709;54.912;8.316;2023-03-13T15:55:38;98289.16;;;9.60;70.17
65131;BME280;51709;54.912;8.316;2023-03-13T16:00:59;98275.06;;;9.53;70.49
65131;BME280;51709;54.912;8.316;2023-03-13T16:06:21;98277.25;;;9.45;70.54
65131;BME280;51709;54.912;8.316;2023-03-13T16:11:50;98273.78;;;9.46;70.54
65131;BME280;51709;54.912;8.316;2023-03-13T16:17:16;98288.03;;;9.35;70.89
65131;BME280;51709;54.912;8.316;2023-03-13T16:22:37;98270.81;;;9.23;70.98
65131;BME280;51709;54.912;8.316;2023-03-13T16:27:57;98269.50;;;9.16;71.08
65131;BME280;51709;54.912;8.316;2023-03-13T16:33:18;98282.25;;;9.01;71.57
65131;BME280;51709;54.912;8.316;2023-03-13T16:38:39;98262.13;;;8.95;71.73
65131;BME280;51709;54.912;8.316;2023-03-13T16:43:59;98263.47;;;8.86;71.94
65131;BME280;51709;54.912;8.316;2023-03-13T16:49:21;98262.56;;;8.71;72.64
65131;BME280;51709;54.912;8.316;2023-03-13T16:54:42;98312.41;;;8.64;72.68
65131;BME280;51709;54.912;8.316;2023-03-13T17:00:11;98271.34;;;8.67;72.76
65131;BME280;51709;54.912;8.316;2023-03-13T17:05:32;98252.03;;;8.77;72.45
65131;BME280;51709;54.912;8.316;2023-03-13T17:10:52;98290.47;;;8.76;72.65
65131;BME280;51709;54.912;8.316;2023-03-13T17:16:30;98316.25;;;8.71;72.47
65131;BME280;51709;54.912;8.316;2023-03-13T17:21:52;98289.78;;;8.72;72.67
65131;BME280;51709;54.912;8.316;2023-03-13T17:27:14;98302.81;;;8.68;72.84
65131;BME280;51709;54.912;8.316;2023-03-13T17:32:35;98308.09;;;8.64;72.92
65131;BME280;51709;54.912;8.316;2023-03-13T17:37:56;98288.50;;;8.65;72.98
65131;BME280;51709;54.912;8.316;2023-03-13T17:43:17;98307.13;;;8.67;72.91
65131;BME280;51709;54.912;8.316;2023-03-13T17:48:37;98291.78;;;8.67;72.76
65131;BME280;51709;54.912;8.316;2023-03-13T17:53:59;98297.81;;;8.66;72.90
65131;BME280;51709;54.912;8.316;2023-03-13T17:59:20;98304.91;;;8.61;73.07
65131;BME280;51709;54.912;8.316;2023-03-13T18:04:41;98307.69;;;8.56;73.46
65131;BME280;51709;54.912;8.316;2023-03-13T18:10:02;98303.34;;;8.58;73.48
65131;BME280;51709;54.912;8.316;2023-03-13T18:15:24;98300.63;;;8.61;72.89
65131;BME280;51709;54.912;8.316;2023-03-13T18:20:45;98310.84;;;8.61;73.25
65131;BME280;51709;54.912;8.316;2023-03-13T18:26:18;98308.78;;;8.52;73.63
65131;BME280;51709;54.912;8.316;2023-03-13T18:31:39;98289.41;;;8.48;73.62
65131;BME280;51709;54.912;8.316;2023-03-13T18:37:09;98311.78;;;8.43;73.98
65131;BME280;51709;54.912;8.316;2023-03-13T18:42:35;98290.78;;;8.38;74.13
65131;BME280;51709;54.912;8.316;2023-03-13T18:47:55;98293.38;;;8.36;74.22
65131;BME280;51709;54.912;8.316;2023-03-13T18:53:16;98300.50;;;8.31;74.25
65131;BME280;51709;54.912;8.316;2023-03-13T18:58:37;98291.25;;;8.28;74.40
65131;BME280;51709;54.912;8.316;2023-03-13T19:03:58;98251.44;;;8.24;74.44
65131;BME280;51709;54.912;8.316;2023-03-13T19:09:20;98302.53;;;8.24;74.57
65131;BME280;51709;54.912;8.316;2023-03-13T19:15:01;98286.22;;;8.27;74.28
65131;BME280;51709;54.912;8.316;2023-03-13T19:20:22;98277.66;;;8.28;74.13
65131;BME280;51709;54.912;8.316;2023-03-13T19:25:43;98285.97;;;8.31;74.08
65131;BME280;51709;54.912;8.316;2023-03-13T19:31:03;98324.16;;;8.35;74.03
65131;BME280;51709;54.912;8.316;2023-03-13T19:36:28;98271.47;;;8.32;74.06
65131;BME280;51709;54.912;8.316;2023-03-13T19:41:51;98276.66;;;8.30;74.18
65131;BME280;51709;54.912;8.316;2023-03-13T19:47:13;98290.34;;;8.29;74.01
65131;BME280;51709;54.912;8.316;2023-03-13T19:52:35;98286.16;;;8.28;74.33
65131;BME280;51709;54.912;8.316;2023-03-13T19:57:55;98287.06;;;8.27;74.44
65131;BME280;51709;54.912;8.316;2023-03-13T20:03:25;98288.25;;;8.20;74.41
65131;BME280;51709;54.912;8.316;2023-03-13T20:09:06;98302.28;;;8.13;74.78
65131;BME280;51709;54.912;8.316;2023-03-13T20:14:27;98305.81;;;8.10;74.83
65131;BME280;51709;54.912;8.316;2023-03-13T20:19:48;98329.88;;;8.06;74.89
65131;BME280;51709;54.912;8.316;2023-03-13T20:25:09;98302.75;;;8.04;74.95
65131;BME280;51709;54.912;8.316;2023-03-13T20:30:30;98310.44;;;8.04;75.10
65131;BME280;51709;54.912;8.316;2023-03-13T20:35:55;98302.75;;;8.04;75.06
65131;BME280;51709;54.912;8.316;2023-03-13T20:41:15;98303.41;;;8.07;74.92
65131;BME280;51709;54.912;8.316;2023-03-13T20:46:36;98319.81;;;8.03;74.87
65131;BME280;51709;54.912;8.316;2023-03-13T20:51:57;98296.06;;;8.01;75.40
65131;BME280;51709;54.912;8.316;2023-03-13T20:57:17;98298.69;;;7.99;75.33
65131;BME280;51709;54.912;8.316;2023-03-13T21:02:39;98297.81;;;8.00;75.28
65131;BME280;51709;54.912;8.316;2023-03-13T21:08:00;98302.00;;;8.01;75.31
65131;BME280;51709;54.912;8.316;2023-03-13T21:13:20;98276.53;;;8.00;75.29
65131;BME280;51709;54.912;8.316;2023-03-13T21:18:41;98290.06;;;8.02;75.24
65131;BME280;51709;54.912;8.316;2023-03-13T21:24:02;98294.19;;;8.05;75.33
65131;BME280;51709;54.912;8.316;2023-03-13T21:29:23;98278.63;;;8.09;75.22
65131;BME280;51709;54.912;8.316;2023-03-13T21:34:44;98277.72;;;8.10;74.99
65131;BME280;51709;54.912;8.316;2023-03-13T21:40:06;98260.50;;;8.14;74.93
65131;BME280;51709;54.912;8.316;2023-03-13T21:45:28;98259.41;;;8.18;74.85
65131;BME280;51709;54.912;8.316;2023-03-13T21:50:52;98263.06;;;8.14;74.95
65131;BME280;51709;54.912;8.316;2023-03-13T21:56:13;98254.66;;;8.12;75.06
65131;BME280;51709;54.912;8.316;2023-03-13T22:01:36;98270.78;;;8.12;75.06
65131;BME280;51709;54.912;8.316;2023-03-13T22:06:56;98266.59;;;8.11;75.18
65131;BME280;51709;54.912;8.316;2023-03-13T22:12:18;98253.25;;;8.06;75.33
65131;BME280;51709;54.912;8.316;2023-03-13T22:17:39;98264.44;;;8.04;75.32
65131;BME280;51709;54.912;8.316;2023-03-13T22:22:59;98267.97;;;8.01;75.40
65131;BME280;51709;54.912;8.316;2023-03-13T22:28:20;98249.66;;;7.93;75.41
65131;BME280;51709;54.912;8.316;2023-03-13T22:33:41;98259.22;;;7.89;75.61
65131;BME280;51709;54.912;8.316;2023-03-13T22:39:02;98262.69;;;7.88;75.75
65131;BME280;51709;54.912;8.316;2023-03-13T22:44:22;98262.28;;;7.96;75.35
65131;BME280;51709;54.912;8.316;2023-03-13T22:49:43;98260.41;;;7.99;75.37
65131;BME280;51709;54.912;8.316;2023-03-13T22:55:04;98261.16;;;8.01;75.30
65131;BME280;51709;54.912;8.316;2023-03-13T23:00:25;98259.72;;;7.96;75.29
65131;BME280;51709;54.912;8.316;2023-03-13T23:05:46;98261.03;;;7.87;75.61
65131;BME280;51709;54.912;8.316;2023-03-13T23:11:07;98271.16;;;7.89;75.73
65131;BME280;51709;54.912;8.316;2023-03-13T23:16:28;98257.91;;;7.82;75.72
65131;BME280;51709;54.912;8.316;2023-03-13T23:21:49;98255.03;;;7.70;75.88
65131;BME280;51709;54.912;8.316;2023-03-13T23:27:10;98284.25;;;7.65;76.14
65131;BME280;51709;54.912;8.316;2023-03-13T23:32:38;98261.00;;;7.53;76.43
65131;BME280;51709;54.912;8.316;2023-03-13T23:37:59;98264.69;;;7.48;76.70
65131;BME280;51709;54.912;8.316;2023-03-13T23:43:19;98254.47;;;7.48;76.81
65131;BME280;51709;54.912;8.316;2023-03-13T23:48:40;98256.22;;;7.47;76.74
65131;BME280;51709;54.912;8.316;2023-03-13T23:54:01;98242.72;;;7.45;76.72
65131;BME280;51709;54.912;8.316;2023-03-13T23:59:22;98227.56;;;7.42;77.14
